Time;durP1;ratioP1;P1;durP2;ratioP2;P2;SDS_P1;SDS_P2;PMS_P1;PMS_P2;Temp;Humidity;BMP_temperature;BMP_pressure;BME280_temperature;BME280_humidity;BME280_pressure;Samples;Min_cycle;Max_cycle;Signal;HPM_P1;HPM_P2
2022/04/23 00:00:21;;;;;;;;;;;11.80;99.90;;;;;;4977600;28;20062;-75
2022/04/23 00:02:46;;;;;;;16.73;10.30;;;11.80;99.90;;;;;;4993693;28;19936;-75
2022/04/23 00:05:12;;;;;;;17.95;10.15;;;11.80;99.90;;;;;;4977052;28;20050;-75
2022/04/23 00:07:38;;;;;;;15.93;10.30;;;11.80;99.90;;;;;;4993841;28;20099;-75
2022/04/23 00:10:04;;;;;;;18.98;10.50;;;11.80;99.90;;;;;;4992822;28;20045;-76
2022/04/23 00:12:30;;;;;;;16.85;10.50;;;11.80;99.90;;;;;;4976504;28;20092;-76
2022/04/23 00:14:56;;;;;;;19.75;10.15;;;11.70;99.90;;;;;;4977977;28;20089;-76
2022/04/23 00:17:21;;;;;;;19.60;10.98;;;11.70;99.90;;;;;;4993764;28;20057;-75
2022/04/23 00:19:48;;;;;;;16.27;10.15;;;11.70;99.90;;;;;;4993910;28;20038;-75
2022/04/23 00:22:15;;;;;;;17.20;10.40;;;11.60;99.90;;;;;;4993006;28;20099;-76
2022/04/23 00:24:42;;;;;;;16.95;11.20;;;11.60;99.90;;;;;;4994127;28;20558;-75
2022/04/23 00:27:07;;;;;;;19.98;11.20;;;11.60;99.90;;;;;;4991700;28;20103;-76
2022/04/23 00:29:35;;;;;;;18.35;11.77;;;11.60;99.90;;;;;;4993934;28;20140;-76
2022/04/23 00:32:02;;;;;;;17.33;11.23;;;11.60;99.90;;;;;;4993869;28;20057;-76
2022/04/23 00:34:28;;;;;;;18.75;10.88;;;11.60;99.90;;;;;;4973610;28;20655;-75
2022/04/23 00:36:54;;;;;;;21.25;11.30;;;11.50;99.90;;;;;;4965644;28;20058;-76
2022/04/23 00:39:20;;;;;;;18.63;10.40;;;11.50;99.90;;;;;;4993328;28;20050;-75
2022/04/23 00:41:51;;;;;;;17.27;11.15;;;11.50;99.90;;;;;;4991806;28;20471;-75
2022/04/23 00:44:18;;;;;;;16.65;10.88;;;11.40;99.90;;;;;;4962494;28;20517;-76
2022/04/23 00:46:45;;;;;;;18.35;11.30;;;11.40;99.90;;;;;;4993654;28;20050;-76
2022/04/23 00:49:12;;;;;;;17.42;10.40;;;11.40;99.90;;;;;;4993021;28;20487;-76
2022/04/23 00:51:42;;;;;;;17.27;11.07;;;11.40;99.90;;;;;;4977041;28;20076;-75
2022/04/23 00:54:09;;;;;;;16.73;11.18;;;11.40;99.90;;;;;;4993591;28;20054;-77
2022/04/23 00:56:36;;;;;;;16.63;10.63;;;11.30;99.90;;;;;;4971439;28;20065;-76
2022/04/23 00:59:05;;;;;;;17.30;11.57;;;11.30;99.90;;;;;;4973654;28;20138;-76
2022/04/23 01:01:31;;;;;;;17.02;11.15;;;11.30;99.90;;;;;;4972857;28;20105;-77
2022/04/23 01:03:57;;;;;;;16.17;10.60;;;11.20;99.90;;;;;;4981528;28;20484;-76
2022/04/23 01:06:24;;;;;;;16.38;11.32;;;11.20;99.90;;;;;;4976545;28;20116;-77
2022/04/23 01:08:50;;;;;;;18.02;11.95;;;11.20;99.90;;;;;;4993593;28;20686;-76
2022/04/23 01:11:16;;;;;;;;;;;11.10;99.90;;;;;;4991331;28;20054;-76
2022/04/23 01:13:44;;;;;;;19.23;11.50;;;11.20;99.90;;;;;;4993557;28;19995;-77
2022/04/23 01:16:10;;;;;;;18.48;11.73;;;11.20;99.90;;;;;;4993237;28;20133;-78
2022/04/23 01:18:40;;;;;;;;;;;11.10;99.90;;;;;;4993526;28;20054;-76
2022/04/23 01:21:08;;;;;;;17.75;11.35;;;11.20;99.90;;;;;;4992758;28;19927;-76
2022/04/23 01:23:36;;;;;;;16.73;11.77;;;11.10;99.90;;;;;;4973021;28;20061;-76
2022/04/23 01:26:04;;;;;;;16.42;11.43;;;11.10;99.90;;;;;;4972018;28;20134;-76
2022/04/23 01:28:33;;;;;;;19.50;11.23;;;11.10;99.90;;;;;;4965922;28;20721;-76
2022/04/23 01:30:59;;;;;;;18.88;12.07;;;11.10;99.90;;;;;;4957549;28;20058;-76
2022/04/23 01:33:25;;;;;;;18.00;12.13;;;11.10;99.90;;;;;;4957051;28;20050;-76
2022/04/23 01:35:51;;;;;;;24.63;11.82;;;11.00;99.90;;;;;;4989620;28;20067;-76
2022/04/23 01:38:16;;;;;;;20.33;12.60;;;11.00;99.90;;;;;;4967752;28;20049;-76
2022/04/23 01:40:42;;;;;;;18.73;11.55;;;11.00;99.90;;;;;;4991141;28;20049;-76
2022/04/23 01:43:08;;;;;;;;;;;11.00;99.90;;;;;;4993445;28;20053;-77
2022/04/23 01:45:38;;;;;;;18.45;11.63;;;11.00;99.90;;;;;;4991944;28;19925;-76
2022/04/23 01:48:04;;;;;;;18.75;12.30;;;10.90;99.90;;;;;;4992532;28;20046;-76
2022/04/23 01:50:30;;;;;;;17.05;11.85;;;11.00;99.90;;;;;;4959634;28;20088;-76
2022/04/23 01:52:55;;;;;;;20.02;11.60;;;10.90;99.90;;;;;;4977091;28;20483;-76
2022/04/23 01:55:21;;;;;;;17.60;11.68;;;10.90;99.90;;;;;;4974923;28;20077;-77
2022/04/23 01:57:47;;;;;;;16.60;11.43;;;10.90;99.90;;;;;;4976915;28;20498;-77
2022/04/23 02:00:14;;;;;;;17.92;11.93;;;10.80;99.90;;;;;;4977553;28;20054;-77
2022/04/23 02:02:43;;;;;;;17.23;10.90;;;10.80;99.90;;;;;;4996380;28;20085;-76
2022/04/23 02:05:10;;;;;;;17.00;11.02;;;10.80;99.90;;;;;;4996359;28;20041;-77
2022/04/23 02:07:45;;;;;;;18.27;12.18;;;10.80;99.90;;;;;;4979440;28;20056;-76
2022/04/23 02:10:13;;;;;;;17.48;11.15;;;10.80;99.90;;;;;;4976034;28;20061;-77
2022/04/23 02:12:39;;;;;;;18.63;11.52;;;10.80;99.90;;;;;;4959712;28;20054;-76
2022/04/23 02:15:07;;;;;;;;;;;10.80;99.90;;;;;;4977446;28;20050;-77
2022/04/23 02:17:39;;;;;;;18.27;12.30;;;10.80;99.90;;;;;;4976400;28;19922;-76
2022/04/23 02:20:14;;;;;;;19.77;11.73;;;10.80;99.90;;;;;;4976627;28;20120;-77
2022/04/23 02:22:40;;;;;;;18.35;11.88;;;10.70;99.90;;;;;;4988673;28;20046;-76
2022/04/23 02:25:06;;;;;;;;;;;10.70;99.90;;;;;;4996130;28;20540;-77
2022/04/23 02:27:43;;;;;;;16.42;10.60;;;10.70;99.90;;;;;;4975026;28;19971;-76
2022/04/23 02:30:10;;;;;;;14.93;9.95;;;10.60;99.90;;;;;;4991401;28;20061;-76
2022/04/23 02:32:36;;;;;;;17.55;10.88;;;10.60;99.90;;;;;;4979329;28;20092;-76
2022/04/23 02:35:03;;;;;;;18.63;10.38;;;10.60;99.90;;;;;;4979874;28;20089;-76
2022/04/23 02:37:34;;;;;;;14.90;9.93;;;10.60;99.90;;;;;;4979367;28;20061;-76
2022/04/23 02:40:05;;;;;;;14.05;9.85;;;10.60;99.90;;;;;;4995508;28;20042;-77
2022/04/23 02:42:33;;;;;;;15.43;10.60;;;10.50;99.90;;;;;;4994209;28;20457;-76
2022/04/23 02:45:01;;;;;;;16.25;11.18;;;10.40;99.90;;;;;;4995956;28;20065;-76
2022/04/23 02:47:28;;;;;;;15.98;10.20;;;10.40;99.90;;;;;;4994747;28;20096;-76
2022/04/23 02:49:54;;;;;;;16.15;10.43;;;10.40;99.90;;;;;;4995867;28;20058;-76
2022/04/23 02:52:20;;;;;;;14.55;10.23;;;10.40;99.90;;;;;;4994489;28;20049;-77
2022/04/23 02:54:45;;;;;;;;;;;10.40;99.90;;;;;;4979391;28;20112;-76
2022/04/23 02:57:12;;;;;;;13.93;9.38;;;10.30;99.90;;;;;;4994089;28;19921;-77
2022/04/23 02:59:39;;;;;;;16.17;10.23;;;10.30;99.90;;;;;;4994600;28;20060;-76
2022/04/23 03:02:06;;;;;;;16.02;9.57;;;10.20;99.90;;;;;;4978987;28;20061;-76
2022/04/23 03:04:32;;;;;;;17.70;9.77;;;10.20;99.90;;;;;;5011966;28;20053;-76
2022/04/23 03:06:57;;;;;;;14.18;9.40;;;10.20;99.90;;;;;;4978155;28;20204;-76
2022/04/23 03:09:23;;;;;;;16.20;10.18;;;10.20;99.90;;;;;;4978781;28;20137;-77
2022/04/23 03:11:49;;;;;;;16.48;10.65;;;10.10;99.90;;;;;;4992112;28;20042;-76
2022/04/23 03:14:15;;;;;;;18.27;10.10;;;10.10;99.90;;;;;;4995500;28;20049;-77
2022/04/23 03:16:41;;;;;;;16.33;9.43;;;10.10;99.90;;;;;;5012021;28;20042;-76
2022/04/23 03:19:07;;;;;;;14.65;9.32;;;10.00;99.90;;;;;;4979194;28;20128;-76
2022/04/23 03:21:33;;;;;;;16.58;10.65;;;10.00;99.90;;;;;;4945964;28;20387;-76
2022/04/23 03:23:58;;;;;;;14.40;9.73;;;10.00;99.90;;;;;;4995157;28;20058;-76
2022/04/23 03:26:24;;;;;;;16.35;10.38;;;10.00;99.90;;;;;;4992986;28;20108;-78
2022/04/23 03:28:50;;;;;;;18.70;11.20;;;9.90;99.90;;;;;;4994635;28;20052;-76
2022/04/23 03:31:16;;;;;;;15.02;9.60;;;9.90;99.90;;;;;;4978850;28;20384;-76
2022/04/23 03:33:42;;;;;;;15.88;10.02;;;9.90;99.90;;;;;;4994600;28;20112;-76
2022/04/23 03:36:07;;;;;;;17.65;9.82;;;9.90;99.90;;;;;;4994102;28;20058;-76
2022/04/23 03:38:33;;;;;;;15.52;10.00;;;9.90;99.90;;;;;;4994392;28;20503;-76
2022/04/23 03:40:59;;;;;;;15.23;10.05;;;10.30;99.90;;;;;;4976726;28;20050;-76
2022/04/23 03:43:25;;;;;;;15.75;9.57;;;9.80;99.90;;;;;;4978444;28;20144;-77
2022/04/23 03:45:52;;;;;;;15.02;9.15;;;9.80;99.90;;;;;;4994743;28;20089;-76
2022/04/23 03:48:18;;;;;;;14.95;9.55;;;9.80;99.90;;;;;;4994458;28;20045;-76
2022/04/23 03:50:44;;;;;;;15.75;10.10;;;9.80;99.90;;;;;;4993595;28;20084;-77
2022/04/23 03:53:09;;;;;;;15.77;9.40;;;9.80;99.90;;;;;;4994361;28;20049;-77
2022/04/23 03:55:35;;;;;;;17.95;9.82;;;9.80;99.90;;;;;;4991799;28;20049;-76
2022/04/23 03:58:01;;;;;;;15.77;9.13;;;9.70;99.90;;;;;;4993447;28;20491;-76
2022/04/23 04:00:28;;;;;;;14.98;9.27;;;9.70;99.90;;;;;;4993123;28;20058;-78
2022/04/23 04:02:54;;;;;;;16.80;9.07;;;9.70;99.90;;;;;;4962541;28;20088;-76
2022/04/23 04:05:22;;;;;;;13.57;8.00;;;9.70;99.90;;;;;;4993961;28;20399;-76
2022/04/23 04:07:48;;;;;;;14.75;9.10;;;9.70;99.90;;;;;;4977793;28;20129;-76
2022/04/23 04:10:16;;;;;;;;;;;9.70;99.90;;;;;;4993599;28;20132;-76
2022/04/23 04:12:42;;;;;;;15.20;8.20;;;9.70;99.90;;;;;;4976753;28;19987;-76
2022/04/23 04:15:10;;;;;;;15.55;8.73;;;9.70;99.90;;;;;;4974027;28;20483;-76
2022/04/23 04:17:37;;;;;;;13.93;8.60;;;9.60;99.90;;;;;;4957873;28;20064;-76
2022/04/23 04:20:07;;;;;;;14.15;8.13;;;9.60;99.90;;;;;;4974511;28;20050;-77
2022/04/23 04:22:34;;;;;;;12.85;7.90;;;9.60;99.90;;;;;;4966108;28;20168;-76
2022/04/23 04:25:01;;;;;;;13.75;8.13;;;9.60;99.90;;;;;;4993771;28;20061;-76
2022/04/23 04:27:27;;;;;;;12.60;7.45;;;9.60;99.90;;;;;;4975867;28;20050;-78
2022/04/23 04:29:53;;;;;;;14.25;8.65;;;9.50;99.90;;;;;;4961531;28;20060;-76
2022/04/23 04:32:20;;;;;;;12.32;8.25;;;9.50;99.90;;;;;;4993701;28;20066;-76
2022/04/23 04:34:46;;;;;;;13.85;8.20;;;9.50;99.90;;;;;;4993408;28;20148;-76
2022/04/23 04:37:12;;;;;;;;;;;9.50;99.90;;;;;;4993358;28;20096;-76
2022/04/23 04:39:41;;;;;;;11.82;8.00;;;9.50;99.90;;;;;;4993088;28;19929;-76
2022/04/23 04:42:07;;;;;;;12.57;8.15;;;9.50;99.90;;;;;;4991685;28;20050;-76
2022/04/23 04:44:34;;;;;;;11.35;6.85;;;9.50;99.90;;;;;;4993284;28;20097;-76
2022/04/23 04:46:59;;;;;;;;;;;9.50;99.90;;;;;;4994166;28;20088;-76
2022/04/23 04:49:25;;;;;;;11.15;7.38;;;9.50;99.90;;;;;;4993549;28;20014;-76
2022/04/23 04:51:52;;;;;;;11.68;7.28;;;9.50;99.90;;;;;;4992667;28;20210;-76
2022/04/23 04:54:18;;;;;;;11.00;7.65;;;9.50;99.90;;;;;;4993198;28;20054;-76
2022/04/23 04:56:48;;;;;;;11.48;7.43;;;9.50;99.90;;;;;;4974710;28;20489;-76
2022/04/23 04:59:14;;;;;;;10.50;5.93;;;9.40;99.90;;;;;;4993615;28;20057;-76
2022/04/23 05:01:40;;;;;;;11.70;6.97;;;9.50;99.90;;;;;;4992351;28;20054;-76
2022/04/23 05:04:06;;;;;;;11.80;7.72;;;9.50;99.90;;;;;;4993276;28;20061;-76
2022/04/23 05:06:32;;;;;;;10.15;6.13;;;9.50;99.90;;;;;;4992856;28;20057;-77
2022/04/23 05:08:57;;;;;;;11.85;6.88;;;9.50;99.90;;;;;;4976861;28;20088;-76
2022/04/23 05:11:24;;;;;;;12.75;7.97;;;9.50;99.90;;;;;;4991552;28;20041;-76
2022/04/23 05:13:50;;;;;;;12.70;7.65;;;9.50;99.90;;;;;;4976854;28;20065;-76
2022/04/23 05:16:16;;;;;;;;;;;9.50;99.90;;;;;;4993675;28;20498;-76
2022/04/23 05:18:42;;;;;;;11.25;7.05;;;9.60;99.90;;;;;;4976821;28;19929;-76
2022/04/23 05:21:08;;;;;;;12.40;7.25;;;9.60;99.90;;;;;;4975640;28;20042;-76
2022/04/23 05:23:34;;;;;;;11.57;7.43;;;9.60;99.90;;;;;;4993197;28;20042;-77
2022/04/23 05:26:00;;;;;;;12.32;7.78;;;9.60;99.90;;;;;;4991154;28;20072;-77
2022/04/23 05:28:26;;;;;;;11.77;6.95;;;9.60;99.90;;;;;;4992855;28;20054;-76
2022/04/23 05:30:51;;;;;;;12.18;6.35;;;9.80;99.90;;;;;;4975974;28;20050;-76
2022/04/23 05:33:17;;;;;;;10.02;6.22;;;9.70;99.90;;;;;;4977221;28;20049;-76
2022/04/23 05:35:43;;;;;;;10.95;7.82;;;9.70;99.90;;;;;;4978010;28;20134;-76
2022/04/23 05:38:09;;;;;;;9.90;5.30;;;9.70;99.90;;;;;;4997142;28;20058;-76
2022/04/23 05:40:34;;;;;;;10.75;6.90;;;9.70;99.90;;;;;;5011827;28;20073;-77
2022/04/23 05:43:00;;;;;;;10.02;6.22;;;9.70;99.90;;;;;;4977118;28;20495;-76
2022/04/23 05:45:27;;;;;;;10.95;6.43;;;9.70;99.90;;;;;;4973016;28;20491;-76
2022/04/23 05:47:53;;;;;;;10.75;6.57;;;9.70;99.90;;;;;;4994583;28;20065;-76
2022/04/23 05:50:19;;;;;;;;;;;9.70;99.90;;;;;;4997039;28;20487;-77
2022/04/23 05:52:45;;;;;;;13.45;7.05;;;9.70;99.90;;;;;;4996085;28;19928;-76
2022/04/23 05:55:11;;;;;;;10.50;7.00;;;9.70;99.90;;;;;;4995929;28;20056;-76
2022/04/23 05:57:38;;;;;;;12.88;7.07;;;9.80;99.90;;;;;;4995890;28;20058;-77
2022/04/23 06:00:06;;;;;;;12.20;7.07;;;9.80;99.90;;;;;;4996132;28;20057;-76
2022/04/23 06:02:32;;;;;;;13.35;7.60;;;9.80;99.90;;;;;;4979710;28;20057;-76
2022/04/23 06:04:58;;;;;;;11.35;6.55;;;9.90;99.90;;;;;;4963672;28;20318;-76
2022/04/23 06:07:24;;;;;;;11.50;7.03;;;9.90;99.90;;;;;;5013430;28;20087;-76
2022/04/23 06:09:51;;;;;;;11.93;7.18;;;10.00;99.90;;;;;;4979157;28;20073;-76
2022/04/23 06:12:16;;;;;;;13.55;7.25;;;10.00;99.90;;;;;;4994783;28;20101;-76
2022/04/23 06:14:44;;;;;;;11.52;7.20;;;10.00;99.90;;;;;;4996055;28;20050;-77
2022/04/23 06:17:12;;;;;;;13.35;7.63;;;10.10;99.90;;;;;;4980181;28;20077;-76
2022/04/23 06:19:42;;;;;;;14.73;8.20;;;10.00;99.90;;;;;;5013492;28;20048;-76
2022/04/23 06:22:09;;;;;;;11.65;7.07;;;10.10;99.90;;;;;;4995684;28;20088;-76
2022/04/23 06:24:35;;;;;;;17.40;7.55;;;10.20;99.90;;;;;;4995397;28;20068;-76
2022/04/23 06:27:01;;;;;;;14.80;7.22;;;10.10;99.90;;;;;;4993727;28;20052;-76
2022/04/23 06:29:27;;;;;;;15.93;6.68;;;10.20;99.90;;;;;;4996166;28;20046;-76
2022/04/23 06:31:53;;;;;;;12.85;8.80;;;10.30;99.90;;;;;;4979383;28;20053;-76
2022/04/23 06:34:20;;;;;;;14.43;5.93;;;10.30;99.90;;;;;;4995763;28;20049;-76
2022/04/23 06:36:46;;;;;;;13.82;7.90;;;10.30;99.90;;;;;;4995074;28;20073;-76
2022/04/23 06:39:11;;;;;;;14.15;8.85;;;10.30;99.90;;;;;;4979893;28;20107;-76
2022/04/23 06:41:37;;;;;;;14.27;8.65;;;10.40;99.90;;;;;;4977873;28;20525;-76
2022/04/23 06:44:03;;;;;;;12.57;8.20;;;10.40;99.90;;;;;;4995352;28;20056;-76
2022/04/23 06:46:29;;;;;;;17.38;8.88;;;10.40;99.90;;;;;;4995804;28;20088;-76
2022/04/23 06:48:55;;;;;;;14.88;8.73;;;10.50;99.90;;;;;;4994776;28;20057;-76
2022/04/23 06:51:20;;;;;;;;;;;10.50;99.90;;;;;;4963096;28;20056;-76
2022/04/23 06:53:46;;;;;;;12.48;8.15;;;10.50;99.90;;;;;;4994960;28;19921;-77
2022/04/23 06:56:12;;;;;;;16.73;8.55;;;10.60;99.90;;;;;;4977484;28;20547;-82
2022/04/23 06:58:37;;;;;;;13.77;7.95;;;10.60;99.90;;;;;;4962836;28;20403;-76
2022/04/23 07:01:06;;;;;;;12.68;8.25;;;10.70;99.90;;;;;;5012294;28;20061;-76
2022/04/23 07:03:32;;;;;;;15.85;8.48;;;10.70;99.90;;;;;;5012973;28;20058;-76
2022/04/23 07:05:57;;;;;;;14.48;8.77;;;10.80;99.90;;;;;;4978286;28;20480;-75
2022/04/23 07:08:23;;;;;;;16.77;8.93;;;10.90;99.90;;;;;;4994987;28;20046;-75
2022/04/23 07:10:49;;;;;;;12.15;7.90;;;10.90;99.90;;;;;;4976720;28;20057;-77
2022/04/23 07:13:15;;;;;;;12.85;7.65;;;10.90;99.90;;;;;;4979296;28;20476;-76
2022/04/23 07:15:41;;;;;;;14.02;8.18;;;10.90;99.90;;;;;;4994490;28;20054;-76
2022/04/23 07:18:08;;;;;;;15.68;7.95;;;11.00;99.90;;;;;;4994513;28;20137;-76
2022/04/23 07:20:36;;;;;;;15.85;8.48;;;11.10;99.90;;;;;;4978688;28;20057;-76
2022/04/23 07:25:46;;;;;;;14.32;8.57;;;11.20;99.90;;;;;;4993008;28;20050;-76
2022/04/23 07:28:13;;;;;;;16.75;7.88;;;11.30;99.90;;;;;;4978380;28;20045;-76
2022/04/23 07:30:39;;;;;;;14.95;8.02;;;11.40;99.90;;;;;;4978723;28;20148;-76
2022/04/23 07:33:05;;;;;;;17.50;8.82;;;11.40;99.90;;;;;;4978333;28;20142;-76
2022/04/23 07:38:17;;;;;;;18.95;8.82;;;11.50;99.90;;;;;;4977979;28;20064;-76
2022/04/23 07:40:44;;;;;;;18.90;8.80;;;11.60;99.90;;;;;;4992732;28;20158;-77
2022/04/23 07:43:12;;;;;;;14.18;7.75;;;11.70;99.90;;;;;;4994203;28;20565;-76
2022/04/23 07:45:44;;;;;;;19.17;8.52;;;11.70;99.90;;;;;;4994795;28;20045;-76
2022/04/23 07:48:11;;;;;;;12.57;6.63;;;11.80;99.90;;;;;;4993475;28;20045;-76
2022/04/23 07:50:38;;;;;;;13.32;6.88;;;11.90;99.90;;;;;;4994297;28;20046;-76
2022/04/23 07:53:05;;;;;;;16.58;8.18;;;12.00;99.90;;;;;;4994199;28;20053;-76
2022/04/23 07:55:38;;;;;;;15.50;7.53;;;12.10;99.90;;;;;;4992797;28;20112;-76
2022/04/23 07:58:09;;;;;;;19.23;7.00;;;12.10;99.90;;;;;;4976799;28;20049;-76
2022/04/23 08:00:35;;;;;;;21.27;9.30;;;12.20;99.90;;;;;;5011695;28;20169;-76
2022/04/23 08:03:05;;;;;;;14.45;6.55;;;12.20;99.90;;;;;;4993870;28;20085;-76
2022/04/23 08:05:32;;;;;;;13.98;6.57;;;12.30;99.70;;;;;;4994021;28;20139;-76
2022/04/23 08:07:59;;;;;;;15.65;7.10;;;12.30;99.20;;;;;;4993556;28;20045;-76
2022/04/23 08:10:25;;;;;;;11.55;6.80;;;12.30;99.80;;;;;;5010058;28;20053;-77
2022/04/23 08:12:50;;;;;;;11.63;6.60;;;12.40;99.90;;;;;;4977981;28;20062;-76
2022/04/23 08:15:16;;;;;;;17.85;7.40;;;12.50;99.90;;;;;;4977581;28;20056;-74
2022/04/23 08:17:42;;;;;;;18.60;7.53;;;12.60;98.90;;;;;;4992786;28;20050;-74
2022/04/23 08:20:09;;;;;;;14.32;7.30;;;12.60;98.70;;;;;;4993290;28;20054;-76
2022/04/23 08:22:35;;;;;;;13.35;7.53;;;12.70;98.50;;;;;;4991929;28;20078;-76
2022/04/23 08:25:02;;;;;;;9.82;5.70;;;12.80;97.60;;;;;;4992371;28;20432;-76
2022/04/23 08:27:27;;;;;;;17.55;7.13;;;12.80;96.60;;;;;;4991193;28;20132;-77
2022/04/23 08:32:37;;;;;;;17.02;7.65;;;12.80;95.20;;;;;;4992379;28;20054;-76
2022/04/23 08:35:05;;;;;;;10.68;5.88;;;12.90;93.00;;;;;;4975758;28;20072;-77
2022/04/23 08:37:32;;;;;;;11.32;7.40;;;12.80;93.10;;;;;;4976270;28;20046;-76
2022/04/23 08:39:58;;;;;;;12.77;7.18;;;12.90;94.00;;;;;;4991635;28;20553;-77
2022/04/23 08:42:24;;;;;;;11.10;6.45;;;13.00;95.10;;;;;;4990736;28;20054;-76
2022/04/23 08:44:53;;;;;;;15.50;6.95;;;13.10;94.00;;;;;;5009506;28;20121;-76
2022/04/23 08:47:24;;;;;;;13.98;7.88;;;13.20;92.50;;;;;;4991673;28;20038;-77
2022/04/23 08:49:56;;;;;;;16.50;7.93;;;13.20;92.30;;;;;;4992538;28;20518;-77
2022/04/23 08:52:31;;;;;;;12.85;7.93;;;13.20;92.00;;;;;;4956949;28;20077;-76
2022/04/23 08:54:59;;;;;;;16.35;7.65;;;13.30;92.40;;;;;;4992017;28;20058;-77
2022/04/23 08:57:24;;;;;;;12.98;8.02;;;13.40;92.70;;;;;;4990187;28;20085;-76
2022/04/23 08:59:53;;;;;;;16.02;8.05;;;13.40;92.90;;;;;;4975753;28;20124;-77
2022/04/23 09:02:19;;;;;;;13.20;7.43;;;13.50;92.70;;;;;;4976051;28;20085;-76
2022/04/23 09:04:45;;;;;;;14.45;8.50;;;13.70;91.60;;;;;;4976485;28;20071;-76
2022/04/23 09:07:37;;;;;;;14.38;7.90;;;13.70;90.40;;;;;;4947896;28;20046;-76
2022/04/23 09:10:03;;;;;;;13.27;7.88;;;13.70;90.00;;;;;;4987012;28;20496;-77
2022/04/23 09:12:30;;;;;;;14.20;7.20;;;13.70;89.60;;;;;;4976639;28;20065;-77
2022/04/23 09:23:39;;;;;;;16.75;7.90;;;13.80;87.70;;;;;;4977944;28;20054;-78
2022/04/23 09:23:40;;;;;;;13.05;7.53;;;14.00;86.30;;;;;;4997436;28;20438;-77
2022/04/23 09:26:21;;;;;;;12.98;6.55;;;14.10;84.50;;;;;;4995082;28;20140;-75
2022/04/23 09:28:55;;;;;;;12.95;7.45;;;14.10;83.40;;;;;;4996733;28;20042;-75
2022/04/23 09:31:24;;;;;;;11.45;7.88;;;14.20;83.80;;;;;;4996676;28;20417;-75
2022/04/23 09:33:51;;;;;;;13.48;8.80;;;14.20;83.40;;;;;;4980791;28;20053;-75
2022/04/23 09:36:18;;;;;;;14.65;8.30;;;14.30;83.80;;;;;;4996185;28;20050;-75
2022/04/23 09:38:44;;;;;;;13.45;7.72;;;14.40;83.10;;;;;;4980946;28;20499;-75
2022/04/23 09:41:21;;;;;;;13.02;8.02;;;14.40;82.00;;;;;;4994522;28;20092;-75
2022/04/23 09:44:04;;;;;;;12.25;8.25;;;14.50;82.00;;;;;;4996500;28;20052;-76
2022/04/23 09:46:43;;;;;;;10.93;6.30;;;14.50;81.60;;;;;;4980163;28;20050;-76
2022/04/23 09:49:09;;;;;;;12.52;7.45;;;14.60;81.70;;;;;;4979773;28;20108;-76
2022/04/23 09:51:35;;;;;;;;;;;14.60;80.70;;;;;;4995882;28;20045;-77
2022/04/23 09:54:05;;;;;;;16.90;8.65;;;14.70;81.50;;;;;;4996029;28;19932;-76
2022/04/23 09:56:31;;;;;;;10.93;7.32;;;14.80;82.00;;;;;;4993913;28;20073;-76
2022/04/23 09:58:57;;;;;;;12.40;7.45;;;15.00;79.70;;;;;;4952281;28;20491;-76
2022/04/23 10:01:24;;;;;;;16.90;7.40;;;15.00;79.60;;;;;;4994794;28;20054;-77
2022/04/23 10:03:52;;;;;;;12.70;7.68;;;15.00;78.40;;;;;;4996735;28;20060;-76
2022/04/23 10:06:19;;;;;;;13.63;8.40;;;15.00;78.60;;;;;;4995610;28;20046;-76
2022/04/23 10:08:55;;;;;;;14.30;8.23;;;15.10;80.10;;;;;;4979833;28;20050;-75
2022/04/23 10:11:30;;;;;;;13.85;8.35;;;15.20;79.40;;;;;;4988972;28;20045;-75
2022/04/23 10:14:02;;;;;;;14.32;8.65;;;15.30;79.30;;;;;;4990432;28;20145;-74
2022/04/23 10:16:33;;;;;;;16.88;9.00;;;15.30;77.50;;;;;;4994341;28;20056;-77
2022/04/23 10:19:00;;;;;;;12.32;7.05;;;15.40;76.70;;;;;;4979242;28;20557;-75
2022/04/23 10:21:56;;;;;;;15.68;8.00;;;15.40;76.90;;;;;;4993562;28;20666;-75
2022/04/23 10:24:47;;;;;;;15.30;8.13;;;15.50;75.70;;;;;;4985757;28;20045;-76
2022/04/23 10:27:14;;;;;;;13.55;8.40;;;15.60;75.10;;;;;;4968216;28;20057;-77
2022/04/23 10:29:40;;;;;;;14.07;7.70;;;15.60;75.70;;;;;;4992107;28;20041;-76
2022/04/23 10:32:09;;;;;;;;;;;15.80;76.90;;;;;;4994782;28;20108;-77
2022/04/23 10:34:35;;;;;;;10.82;7.40;;;15.90;75.00;;;;;;4994209;28;19952;-76
2022/04/23 10:37:20;;;;;;;;;;;15.90;74.20;;;;;;4994266;28;20057;-76
2022/04/23 10:39:52;;;;;;;11.65;7.75;;;16.00;73.90;;;;;;4977954;28;19929;-77
2022/04/23 10:42:19;;;;;;;14.57;8.25;;;16.10;74.30;;;;;;4989588;28;20058;-76
2022/04/23 10:44:46;;;;;;;13.27;7.10;;;16.10;73.50;;;;;;4978198;28;20244;-77
2022/04/23 10:47:30;;;;;;;12.98;7.32;;;16.10;73.00;;;;;;4977442;28;20121;-77
2022/04/23 10:50:19;;;;;;;13.68;6.85;;;16.20;71.70;;;;;;4991685;28;20062;-78
2022/04/23 10:52:46;;;;;;;11.50;5.40;;;16.20;72.80;;;;;;4992250;28;20065;-76
2022/04/23 10:55:13;;;;;;;10.35;6.22;;;16.40;69.20;;;;;;4991490;28;20534;-77
2022/04/23 10:57:39;;;;;;;12.23;7.07;;;16.40;68.90;;;;;;4973742;28;20058;-76
2022/04/23 11:00:43;;;;;;;10.63;6.82;;;16.40;67.70;;;;;;4992575;28;20514;-76
2022/04/23 11:03:10;;;;;;;12.95;6.57;;;16.50;66.70;;;;;;4992921;28;20140;-78
2022/04/23 11:13:57;;;;;;;11.82;7.93;;;16.60;66.30;;;;;;4983805;28;20491;-76
2022/04/23 11:16:25;;;;;;;12.63;7.95;;;16.70;66.20;;;;;;4991840;28;20042;-76
2022/04/23 11:18:58;;;;;;;12.52;7.90;;;16.80;65.40;;;;;;4992359;28;20435;-76
2022/04/23 11:21:28;;;;;;;10.30;5.72;;;16.80;65.70;;;;;;5002786;28;20049;-76
2022/04/23 11:23:56;;;;;;;11.98;7.68;;;16.90;65.00;;;;;;4969994;28;20046;-76
2022/04/23 11:26:38;;;;;;;15.45;8.43;;;17.00;65.10;;;;;;4990220;28;20145;-76
2022/04/23 11:29:04;;;;;;;12.27;7.70;;;17.10;65.50;;;;;;4991608;28;20639;-76
2022/04/23 11:31:30;;;;;;;10.43;6.40;;;17.20;65.40;;;;;;4992237;28;20108;-76
2022/04/23 11:33:57;;;;;;;11.52;7.65;;;17.20;65.00;;;;;;4973176;28;20467;-76
2022/04/23 11:36:32;;;;;;;10.75;7.13;;;17.40;64.30;;;;;;4976144;28;20053;-76
2022/04/23 11:38:59;;;;;;;11.02;7.13;;;17.40;63.30;;;;;;4992927;28;20046;-77
2022/04/23 11:41:36;;;;;;;11.48;7.97;;;17.60;63.80;;;;;;4974649;28;20564;-76
2022/04/23 11:44:45;;;;;;;13.13;7.53;;;17.70;63.30;;;;;;4978445;28;20054;-77
2022/04/23 11:47:12;;;;;;;9.48;5.72;;;17.80;61.60;;;;;;4994147;28;20042;-77
2022/04/23 11:49:38;;;;;;;13.15;6.22;;;18.00;61.20;;;;;;4993924;28;20041;-76
2022/04/23 11:52:10;;;;;;;9.52;6.15;;;18.00;60.10;;;;;;4993888;28;20060;-76
2022/04/23 11:54:44;;;;;;;11.65;5.78;;;18.10;59.20;;;;;;4993938;28;20064;-79
2022/04/23 11:57:11;;;;;;;8.57;5.28;;;18.20;58.60;;;;;;4992626;28;20518;-77
2022/04/23 11:59:42;;;;;;;10.85;5.93;;;18.40;58.50;;;;;;4992999;28;20058;-76
2022/04/23 12:02:17;;;;;;;8.82;5.20;;;18.50;57.30;;;;;;4993134;28;20062;-75
2022/04/23 12:04:43;;;;;;;8.40;5.10;;;18.60;57.70;;;;;;4977836;28;20060;-76
2022/04/23 12:07:10;;;;;;;11.70;5.97;;;18.80;58.10;;;;;;4977443;28;20499;-77
2022/04/23 12:09:56;;;;;;;11.00;5.10;;;19.10;56.60;;;;;;4977454;28;20065;-76
2022/04/23 12:12:33;;;;;;;7.60;5.25;;;19.30;56.90;;;;;;4975588;28;20053;-76
2022/04/23 12:15:06;;;;;;;8.27;5.22;;;19.60;56.70;;;;;;4994180;28;20053;-77
2022/04/23 12:17:52;;;;;;;7.85;5.20;;;19.80;55.50;;;;;;4993620;28;20057;-76
2022/04/23 12:20:23;;;;;;;8.88;5.53;;;20.00;55.60;;;;;;4993305;28;20054;-78
2022/04/23 12:23:05;;;;;;;12.23;5.30;;;20.20;56.20;;;;;;4993529;28;20049;-77
2022/04/23 12:25:33;;;;;;;12.15;6.25;;;20.40;54.20;;;;;;4972297;28;20053;-76
2022/04/23 12:42:01;;;;;;;11.88;4.68;;;20.80;49.60;;;;;;4991365;28;20099;-77
2022/04/23 12:44:39;;;;;;;16.17;4.72;;;20.90;49.70;;;;;;4993028;28;20054;-77
2022/04/23 12:47:07;;;;;;;8.65;5.22;;;21.00;48.20;;;;;;4993719;28;20127;-77
2022/04/23 12:49:55;;;;;;;8.75;4.75;;;21.00;48.80;;;;;;4977003;28;20386;-76
2022/04/23 12:52:21;;;;;;;6.40;4.40;;;21.10;48.00;;;;;;4992162;28;20475;-79
2022/04/23 12:55:21;;;;;;;9.80;4.60;;;21.20;48.60;;;;;;4992757;28;20073;-77
2022/04/23 12:57:51;;;;;;;6.90;4.40;;;21.50;46.80;;;;;;4975903;28;20042;-77
2022/04/23 13:00:21;;;;;;;6.15;4.57;;;21.60;47.80;;;;;;4992697;28;20058;-77
2022/04/23 13:02:51;;;;;;;8.90;4.57;;;21.80;46.90;;;;;;4993347;28;20054;-77
2022/04/23 13:05:17;;;;;;;7.53;4.32;;;21.90;46.90;;;;;;4977142;28;20050;-76
2022/04/23 13:10:27;;;;;;;10.82;4.45;;;22.30;46.90;;;;;;4990743;28;20554;-77
2022/04/23 13:12:53;;;;;;;7.43;4.10;;;22.50;45.60;;;;;;4992800;28;20041;-76
2022/04/23 13:15:19;;;;;;;8.38;4.20;;;22.50;44.70;;;;;;4976742;28;20479;-74
2022/04/23 13:17:46;;;;;;;8.07;4.30;;;22.60;44.90;;;;;;4975830;28;20060;-75
2022/04/23 13:20:14;;;;;;;8.23;4.57;;;22.70;44.20;;;;;;4992413;28;20128;-76
2022/04/23 13:22:43;;;;;;;12.15;4.72;;;22.60;44.10;;;;;;4959761;28;20130;-76
2022/04/23 13:25:14;;;;;;;9.52;4.65;;;22.70;43.90;;;;;;4991501;28;20124;-76
2022/04/23 13:27:43;;;;;;;8.20;4.03;;;22.80;43.30;;;;;;4973087;28;20595;-76